sensor_id;sensor_type;location;lat;lon;timestamp;pressure;altitude;pressure_sealevel;temperature;humidity
14041;BME280;7095;51.388;6.196;2022-07-11T00:01:16;53352.00;;;-145.32;100.00
14041;BME280;7095;51.388;6.196;2022-07-11T00:03:45;53367.91;;;-145.32;100.00
14041;BME280;7095;51.388;6.196;2022-07-11T00:06:14;53395.72;;;-145.32;100.00
14041;BME280;7095;51.388;6.196;2022-07-11T00:08:42;53383.78;;;-145.32;100.00
14041;BME280;7095;51.388;6.196;2022-07-11T00:11:11;53387.78;;;-145.32;100.00
14041;BME280;7095;51.388;6.196;2022-07-11T00:13:41;53399.69;;;-145.32;100.00
14041;BME280;7095;51.388;6.196;2022-07-11T00:16:10;53417.59;;;-145.32;100.00
14041;BME280;7095;51.388;6.196;2022-07-11T00:18:40;53389.75;;;-145.32;100.00
14041;BME280;7095;51.388;6.196;2022-07-11T00:21:09;53385.78;;;-145.32;100.00
14041;BME280;7095;51.388;6.196;2022-07-11T00:23:38;53399.69;;;-145.32;100.00
14041;BME280;7095;51.388;6.196;2022-07-11T00:26:07;53429.53;;;-145.32;100.00
14041;BME280;7095;51.388;6.196;2022-07-11T00:28:35;53419.59;;;-145.32;100.00
14041;BME280;7095;51.388;6.196;2022-07-11T00:31:05;53447.41;;;-145.32;100.00
14041;BME280;7095;51.388;6.196;2022-07-11T00:33:35;53459.34;;;-145.32;100.00
14041;BME280;7095;51.388;6.196;2022-07-11T00:36:05;53447.41;;;-145.32;100.00
14041;BME280;7095;51.388;6.196;2022-07-11T00:38:34;53483.19;;;-145.32;100.00
14041;BME280;7095;51.388;6.196;2022-07-11T00:41:03;53467.28;;;-145.32;100.00
14041;BME280;7095;51.388;6.196;2022-07-11T00:43:34;53455.38;;;-145.32;100.00
14041;BME280;7095;51.388;6.196;2022-07-11T00:46:06;53419.59;;;-145.32;100.00
14041;BME280;7095;51.388;6.196;2022-07-11T00:48:38;53443.44;;;-145.32;100.00
14041;BME280;7095;51.388;6.196;2022-07-11T00:51:09;53463.31;;;-145.32;100.00
14041;BME280;7095;51.388;6.196;2022-07-11T00:53:39;53447.41;;;-145.32;100.00
14041;BME280;7095;51.388;6.196;2022-07-11T00:56:09;53485.19;;;-145.32;100.00
14041;BME280;7095;51.388;6.196;2022-07-11T00:58:38;53491.16;;;-145.32;100.00
14041;BME280;7095;51.388;6.196;2022-07-11T01:01:08;53491.16;;;-145.32;100.00
14041;BME280;7095;51.388;6.196;2022-07-11T01:03:37;53467.28;;;-145.32;100.00
14041;BME280;7095;51.388;6.196;2022-07-11T01:06:07;53489.16;;;-145.32;100.00
14041;BME280;7095;51.388;6.196;2022-07-11T01:08:37;53513.03;;;-145.32;100.00
14041;BME280;7095;51.388;6.196;2022-07-11T01:11:07;53511.03;;;-145.32;100.00
14041;BME280;7095;51.388;6.196;2022-07-11T01:13:39;53505.06;;;-145.32;100.00
14041;BME280;7095;51.388;6.196;2022-07-11T01:16:11;53497.13;;;-145.32;100.00
14041;BME280;7095;51.388;6.196;2022-07-11T01:18:42;53540.84;;;-145.32;100.00
14041;BME280;7095;51.388;6.196;2022-07-11T01:21:18;53511.03;;;-145.32;100.00
14041;BME280;7095;51.388;6.196;2022-07-11T01:23:51;53524.94;;;-145.32;100.00
14041;BME280;7095;51.388;6.196;2022-07-11T01:26:20;53528.94;;;-145.32;100.00
14041;BME280;7095;51.388;6.196;2022-07-11T01:28:49;53558.75;;;-145.32;100.00
14041;BME280;7095;51.388;6.196;2022-07-11T01:31:18;53550.78;;;-145.32;100.00
14041;BME280;7095;51.388;6.196;2022-07-11T01:33:50;53574.66;;;-145.32;100.00
14041;BME280;7095;51.388;6.196;2022-07-11T01:36:18;53550.78;;;-145.32;100.00
14041;BME280;7095;51.388;6.196;2022-07-11T01:38:47;53596.53;;;-145.32;100.00
14041;BME280;7095;51.388;6.196;2022-07-11T01:41:17;53580.63;;;-145.32;100.00
14041;BME280;7095;51.388;6.196;2022-07-11T01:43:46;53650.19;;;-145.32;100.00
14041;BME280;7095;51.388;6.196;2022-07-11T01:46:14;53642.25;;;-145.32;100.00
14041;BME280;7095;51.388;6.196;2022-07-11T01:48:44;53654.19;;;-145.32;100.00
14041;BME280;7095;51.388;6.196;2022-07-11T01:51:12;53586.56;;;-145.32;100.00
14041;BME280;7095;51.388;6.196;2022-07-11T01:53:41;53634.28;;;-145.32;100.00
14041;BME280;7095;51.388;6.196;2022-07-11T01:56:11;53670.09;;;-145.32;100.00
14041;BME280;7095;51.388;6.196;2022-07-11T01:58:49;53666.09;;;-145.32;100.00
14041;BME280;7095;51.388;6.196;2022-07-11T02:01:17;53646.22;;;-145.32;100.00
14041;BME280;7095;51.388;6.196;2022-07-11T02:03:46;53666.09;;;-145.32;100.00
14041;BME280;7095;51.388;6.196;2022-07-11T02:06:15;53680.03;;;-145.32;100.00
14041;BME280;7095;51.388;6.196;2022-07-11T02:08:43;53733.69;;;-145.32;100.00
14041;BME280;7095;51.388;6.196;2022-07-11T02:11:12;53693.94;;;-145.32;100.00
14041;BME280;7095;51.388;6.196;2022-07-11T02:13:40;53709.84;;;-145.32;100.00
14041;BME280;7095;51.388;6.196;2022-07-11T02:16:11;53721.78;;;-145.32;100.00
14041;BME280;7095;51.388;6.196;2022-07-11T02:18:40;53729.72;;;-145.32;100.00
14041;BME280;7095;51.388;6.196;2022-07-11T02:21:08;53749.59;;;-145.32;100.00
14041;BME280;7095;51.388;6.196;2022-07-11T02:23:39;53731.72;;;-145.32;100.00
14041;BME280;7095;51.388;6.196;2022-07-11T02:26:08;53715.81;;;-145.32;100.00
14041;BME280;7095;51.388;6.196;2022-07-11T02:28:37;53733.69;;;-145.32;100.00
14041;BME280;7095;51.388;6.196;2022-07-11T02:31:07;53747.63;;;-145.32;100.00
14041;BME280;7095;51.388;6.196;2022-07-11T02:33:37;53745.63;;;-145.32;100.00
14041;BME280;7095;51.388;6.196;2022-07-11T02:36:06;53743.66;;;-145.32;100.00
14041;BME280;7095;51.388;6.196;2022-07-11T02:38:38;53741.66;;;-145.32;100.00
14041;BME280;7095;51.388;6.196;2022-07-11T02:41:07;53733.69;;;-145.32;100.00
14041;BME280;7095;51.388;6.196;2022-07-11T02:43:35;53749.59;;;-145.32;100.00
14041;BME280;7095;51.388;6.196;2022-07-11T02:46:04;53751.59;;;-145.32;100.00
14041;BME280;7095;51.388;6.196;2022-07-11T02:48:33;53721.78;;;-145.32;100.00
14041;BME280;7095;51.388;6.196;2022-07-11T02:51:03;53745.63;;;-145.32;100.00
14041;BME280;7095;51.388;6.196;2022-07-11T02:53:31;53729.72;;;-145.32;100.00
14041;BME280;7095;51.388;6.196;2022-07-11T02:56:00;53711.84;;;-145.32;100.00
14041;BME280;7095;51.388;6.196;2022-07-11T02:58:28;53733.69;;;-145.32;100.00
14041;BME280;7095;51.388;6.196;2022-07-11T03:00:57;53739.66;;;-145.32;100.00
14041;BME280;7095;51.388;6.196;2022-07-11T03:03:26;53725.75;;;-145.32;100.00
14041;BME280;7095;51.388;6.196;2022-07-11T03:05:54;53680.03;;;-145.32;100.00
14041;BME280;7095;51.388;6.196;2022-07-11T03:08:24;53733.69;;;-145.32;100.00
14041;BME280;7095;51.388;6.196;2022-07-11T03:10:53;53689.97;;;-145.32;100.00
14041;BME280;7095;51.388;6.196;2022-07-11T03:13:21;53697.91;;;-145.32;100.00
14041;BME280;7095;51.388;6.196;2022-07-11T03:15:50;53686.00;;;-145.32;100.00
14041;BME280;7095;51.388;6.196;2022-07-11T03:18:18;53678.03;;;-145.32;100.00
14041;BME280;7095;51.388;6.196;2022-07-11T03:20:47;53687.97;;;-145.32;100.00
14041;BME280;7095;51.388;6.196;2022-07-11T03:23:16;53670.09;;;-145.32;100.00
14041;BME280;7095;51.388;6.196;2022-07-11T03:25:46;53707.84;;;-145.32;100.00
14041;BME280;7095;51.388;6.196;2022-07-11T03:28:14;53664.13;;;-145.32;100.00
14041;BME280;7095;51.388;6.196;2022-07-11T03:30:43;53689.97;;;-145.32;100.00
14041;BME280;7095;51.388;6.196;2022-07-11T03:33:12;53678.03;;;-145.32;100.00
14041;BME280;7095;51.388;6.196;2022-07-11T03:35:40;53697.91;;;-145.32;100.00
14041;BME280;7095;51.388;6.196;2022-07-11T03:38:09;53697.91;;;-145.32;100.00
14041;BME280;7095;51.388;6.196;2022-07-11T03:40:39;53666.09;;;-145.32;100.00
14041;BME280;7095;51.388;6.196;2022-07-11T03:43:09;53684.00;;;-145.32;100.00
14041;BME280;7095;51.388;6.196;2022-07-11T03:45:37;53642.25;;;-145.32;100.00
14041;BME280;7095;51.388;6.196;2022-07-11T03:48:06;53658.16;;;-145.32;100.00
14041;BME280;7095;51.388;6.196;2022-07-11T03:50:35;53652.19;;;-145.32;100.00
14041;BME280;7095;51.388;6.196;2022-07-11T03:53:04;53676.03;;;-145.32;100.00
14041;BME280;7095;51.388;6.196;2022-07-11T03:55:33;53678.03;;;-145.32;100.00
14041;BME280;7095;51.388;6.196;2022-07-11T03:58:02;53676.03;;;-145.32;100.00
14041;BME280;7095;51.388;6.196;2022-07-11T04:00:32;53660.13;;;-145.32;100.00
14041;BME280;7095;51.388;6.196;2022-07-11T04:03:01;53654.19;;;-145.32;100.00
14041;BME280;7095;51.388;6.196;2022-07-11T04:05:30;53662.13;;;-145.32;100.00
14041;BME280;7095;51.388;6.196;2022-07-11T04:07:59;53660.13;;;-145.32;100.00
14041;BME280;7095;51.388;6.196;2022-07-11T04:10:28;53658.16;;;-145.32;100.00
14041;BME280;7095;51.388;6.196;2022-07-11T04:12:56;53638.28;;;-145.32;100.00
14041;BME280;7095;51.388;6.196;2022-07-11T04:15:25;53630.31;;;-145.32;100.00
14041;BME280;7095;51.388;6.196;2022-07-11T04:17:55;53602.47;;;-145.32;100.00
14041;BME280;7095;51.388;6.196;2022-07-11T04:20:23;53654.19;;;-145.32;100.00
14041;BME280;7095;51.388;6.196;2022-07-11T04:22:52;53626.34;;;-145.32;100.00
14041;BME280;7095;51.388;6.196;2022-07-11T04:25:21;53614.41;;;-145.32;100.00
14041;BME280;7095;51.388;6.196;2022-07-11T04:27:49;53618.38;;;-145.32;100.00
14041;BME280;7095;51.388;6.196;2022-07-11T04:30:18;53598.50;;;-145.32;100.00
14041;BME280;7095;51.388;6.196;2022-07-11T04:32:47;53616.41;;;-145.32;100.00
14041;BME280;7095;51.388;6.196;2022-07-11T04:35:17;53622.38;;;-145.32;100.00
14041;BME280;7095;51.388;6.196;2022-07-11T04:37:45;53618.38;;;-145.32;100.00
14041;BME280;7095;51.388;6.196;2022-07-11T04:40:14;53614.41;;;-145.32;100.00
14041;BME280;7095;51.388;6.196;2022-07-11T04:42:44;53582.59;;;-145.32;100.00
14041;BME280;7095;51.388;6.196;2022-07-11T04:45:13;53606.47;;;-145.32;100.00
14041;BME280;7095;51.388;6.196;2022-07-11T04:47:42;53546.81;;;-145.32;100.00
14041;BME280;7095;51.388;6.196;2022-07-11T04:50:10;53558.75;;;-145.32;100.00
14041;BME280;7095;51.388;6.196;2022-07-11T04:52:41;53582.59;;;-145.32;100.00
14041;BME280;7095;51.388;6.196;2022-07-11T04:55:10;53598.50;;;-145.32;100.00
14041;BME280;7095;51.388;6.196;2022-07-11T04:57:38;53588.56;;;-145.32;100.00
14041;BME280;7095;51.388;6.196;2022-07-11T05:00:08;53578.63;;;-145.32;100.00
14041;BME280;7095;51.388;6.196;2022-07-11T05:02:37;53598.50;;;-145.32;100.00
14041;BME280;7095;51.388;6.196;2022-07-11T05:05:07;53610.44;;;-145.32;100.00
14041;BME280;7095;51.388;6.196;2022-07-11T05:07:35;53588.56;;;-145.32;100.00
14041;BME280;7095;51.388;6.196;2022-07-11T05:10:07;53606.47;;;-145.32;100.00
14041;BME280;7095;51.388;6.196;2022-07-11T05:12:36;53610.44;;;-145.32;100.00
14041;BME280;7095;51.388;6.196;2022-07-11T05:15:06;53626.34;;;-145.32;100.00
14041;BME280;7095;51.388;6.196;2022-07-11T05:17:35;53602.47;;;-145.32;100.00
14041;BME280;7095;51.388;6.196;2022-07-11T05:20:11;53552.78;;;-145.32;100.00
14041;BME280;7095;51.388;6.196;2022-07-11T05:22:40;53594.53;;;-145.32;100.00
14041;BME280;7095;51.388;6.196;2022-07-11T05:25:10;53572.66;;;-145.32;100.00
14041;BME280;7095;51.388;6.196;2022-07-11T05:27:38;53584.59;;;-145.32;100.00
14041;BME280;7095;51.388;6.196;2022-07-11T05:30:08;53608.44;;;-145.32;100.00
14041;BME280;7095;51.388;6.196;2022-07-11T05:32:37;53614.41;;;-145.32;100.00
14041;BME280;7095;51.388;6.196;2022-07-11T05:35:06;53604.47;;;-145.32;100.00
14041;BME280;7095;51.388;6.196;2022-07-11T05:37:35;53598.50;;;-145.32;100.00
14041;BME280;7095;51.388;6.196;2022-07-11T05:40:05;53606.47;;;-145.32;100.00
14041;BME280;7095;51.388;6.196;2022-07-11T05:42:35;53612.44;;;-145.32;100.00
14041;BME280;7095;51.388;6.196;2022-07-11T05:45:04;53604.47;;;-145.32;100.00
14041;BME280;7095;51.388;6.196;2022-07-11T05:47:33;53600.50;;;-145.32;100.00
14041;BME280;7095;51.388;6.196;2022-07-11T05:50:02;53622.38;;;-145.32;100.00
14041;BME280;7095;51.388;6.196;2022-07-11T05:52:31;53630.31;;;-145.32;100.00
14041;BME280;7095;51.388;6.196;2022-07-11T05:55:00;53604.47;;;-145.32;100.00
14041;BME280;7095;51.388;6.196;2022-07-11T05:57:28;53590.56;;;-145.32;100.00
14041;BME280;7095;51.388;6.196;2022-07-11T05:59:59;53582.59;;;-145.32;100.00
14041;BME280;7095;51.388;6.196;2022-07-11T06:02:35;53574.66;;;-145.32;100.00
14041;BME280;7095;51.388;6.196;2022-07-11T06:05:05;53600.50;;;-145.32;100.00
14041;BME280;7095;51.388;6.196;2022-07-11T06:07:33;53572.66;;;-145.32;100.00
14041;BME280;7095;51.388;6.196;2022-07-11T06:10:26;53594.53;;;-145.32;100.00
14041;BME280;7095;51.388;6.196;2022-07-11T06:12:55;53618.38;;;-145.32;100.00
14041;BME280;7095;51.388;6.196;2022-07-11T06:15:26;53604.47;;;-145.32;100.00
14041;BME280;7095;51.388;6.196;2022-07-11T06:17:55;53578.63;;;-145.32;100.00
14041;BME280;7095;51.388;6.196;2022-07-11T06:20:24;53606.47;;;-145.32;100.00
14041;BME280;7095;51.388;6.196;2022-07-11T06:22:53;53600.50;;;-145.32;100.00
14041;BME280;7095;51.388;6.196;2022-07-11T06:25:22;53610.44;;;-145.32;100.00
14041;BME280;7095;51.388;6.196;2022-07-11T06:27:50;53584.59;;;-145.32;100.00
14041;BME280;7095;51.388;6.196;2022-07-11T06:30:20;53576.63;;;-145.32;100.00
14041;BME280;7095;51.388;6.196;2022-07-11T06:32:49;53630.31;;;-145.32;100.00
14041;BME280;7095;51.388;6.196;2022-07-11T06:35:18;53590.56;;;-145.32;100.00
14041;BME280;7095;51.388;6.196;2022-07-11T06:37:47;53594.53;;;-145.32;100.00
14041;BME280;7095;51.388;6.196;2022-07-11T06:40:16;53596.53;;;-145.32;100.00
14041;BME280;7095;51.388;6.196;2022-07-11T06:42:45;53594.53;;;-145.32;100.00
14041;BME280;7095;51.388;6.196;2022-07-11T06:45:14;53616.41;;;-145.32;100.00
14041;BME280;7095;51.388;6.196;2022-07-11T06:47:43;53610.44;;;-145.32;100.00
14041;BME280;7095;51.388;6.196;2022-07-11T06:50:13;53578.63;;;-145.32;100.00
14041;BME280;7095;51.388;6.196;2022-07-11T06:52:44;53568.69;;;-145.32;100.00
14041;BME280;7095;51.388;6.196;2022-07-11T06:55:13;53582.59;;;-145.32;100.00
14041;BME280;7095;51.388;6.196;2022-07-11T06:57:41;53582.59;;;-145.32;100.00
14041;BME280;7095;51.388;6.196;2022-07-11T07:00:30;53560.72;;;-145.32;100.00
14041;BME280;7095;51.388;6.196;2022-07-11T07:02:59;53600.50;;;-145.32;100.00
14041;BME280;7095;51.388;6.196;2022-07-11T07:05:34;53618.38;;;-145.32;100.00
14041;BME280;7095;51.388;6.196;2022-07-11T07:08:03;53602.47;;;-145.32;100.00
14041;BME280;7095;51.388;6.196;2022-07-11T07:10:32;53592.53;;;-145.32;100.00
14041;BME280;7095;51.388;6.196;2022-07-11T07:13:01;53564.72;;;-145.32;100.00
14041;BME280;7095;51.388;6.196;2022-07-11T07:15:30;53588.56;;;-145.32;100.00
14041;BME280;7095;51.388;6.196;2022-07-11T07:18:00;53554.78;;;-145.32;100.00
14041;BME280;7095;51.388;6.196;2022-07-11T07:20:30;53566.69;;;-145.32;100.00
14041;BME280;7095;51.388;6.196;2022-07-11T07:23:00;53580.63;;;-145.32;100.00
14041;BME280;7095;51.388;6.196;2022-07-11T07:25:29;53554.78;;;-145.32;100.00
14041;BME280;7095;51.388;6.196;2022-07-11T07:27:57;53548.81;;;-145.32;100.00
14041;BME280;7095;51.388;6.196;2022-07-11T07:30:26;53530.91;;;-145.32;100.00
14041;BME280;7095;51.388;6.196;2022-07-11T07:32:55;53538.88;;;-145.32;100.00
14041;BME280;7095;51.388;6.196;2022-07-11T07:35:23;53515.00;;;-145.32;100.00
14041;BME280;7095;51.388;6.196;2022-07-11T07:37:52;53497.13;;;-145.32;100.00
14041;BME280;7095;51.388;6.196;2022-07-11T07:40:22;53513.03;;;-145.32;100.00
14041;BME280;7095;51.388;6.196;2022-07-11T07:42:50;53503.06;;;-145.32;100.00
14041;BME280;7095;51.388;6.196;2022-07-11T07:45:19;53524.94;;;-145.32;100.00
14041;BME280;7095;51.388;6.196;2022-07-11T07:47:48;53487.19;;;-145.32;100.00
14041;BME280;7095;51.388;6.196;2022-07-11T07:50:17;53483.19;;;-145.32;100.00
14041;BME280;7095;51.388;6.196;2022-07-11T07:52:46;53487.19;;;-145.32;100.00
14041;BME280;7095;51.388;6.196;2022-07-11T07:55:15;53479.22;;;-145.32;100.00
14041;BME280;7095;51.388;6.196;2022-07-11T07:57:45;53451.38;;;-145.32;100.00
14041;BME280;7095;51.388;6.196;2022-07-11T08:00:14;53497.13;;;-145.32;100.00
14041;BME280;7095;51.388;6.196;2022-07-11T08:03:05;53479.22;;;-145.32;100.00
14041;BME280;7095;51.388;6.196;2022-07-11T08:05:35;53467.28;;;-145.32;100.00
14041;BME280;7095;51.388;6.196;2022-07-11T08:08:04;53465.31;;;-145.32;100.00
14041;BME280;7095;51.388;6.196;2022-07-11T08:10:33;53485.19;;;-145.32;100.00
14041;BME280;7095;51.388;6.196;2022-07-11T08:13:03;53471.28;;;-145.32;100.00
14041;BME280;7095;51.388;6.196;2022-07-11T08:15:32;53469.28;;;-145.32;100.00
14041;BME280;7095;51.388;6.196;2022-07-11T08:18:01;53435.47;;;-145.32;100.00
14041;BME280;7095;51.388;6.196;2022-07-11T08:20:29;53443.44;;;-145.32;100.00
14041;BME280;7095;51.388;6.196;2022-07-11T08:22:59;53417.59;;;-145.32;100.00
14041;BME280;7095;51.388;6.196;2022-07-11T08:25:29;53423.56;;;-145.32;100.00
14041;BME280;7095;51.388;6.196;2022-07-11T08:27:58;53435.47;;;-145.32;100.00
14041;BME280;7095;51.388;6.196;2022-07-11T08:30:28;53419.59;;;-145.32;100.00
14041;BME280;7095;51.388;6.196;2022-07-11T08:32:56;53395.72;;;-145.32;100.00
14041;BME280;7095;51.388;6.196;2022-07-11T08:35:25;53403.69;;;-145.32;100.00
14041;BME280;7095;51.388;6.196;2022-07-11T08:37:54;53401.69;;;-145.32;100.00
14041;BME280;7095;51.388;6.196;2022-07-11T08:40:23;53379.81;;;-145.32;100.00
14041;BME280;7095;51.388;6.196;2022-07-11T08:42:52;53377.84;;;-145.32;100.00
14041;BME280;7095;51.388;6.196;2022-07-11T08:45:30;53373.84;;;-145.32;100.00
14041;BME280;7095;51.388;6.196;2022-07-11T08:47:59;53381.81;;;-145.32;100.00
14041;BME280;7095;51.388;6.196;2022-07-11T08:50:30;53371.88;;;-145.32;100.00
14041;BME280;7095;51.388;6.196;2022-07-11T08:52:58;53361.94;;;-145.32;100.00
14041;BME280;7095;51.388;6.196;2022-07-11T08:55:27;53318.19;;;-145.32;100.00
14041;BME280;7095;51.388;6.196;2022-07-11T08:57:56;53357.94;;;-145.32;100.00
14041;BME280;7095;51.388;6.196;2022-07-11T09:00:26;53326.16;;;-145.32;100.00
14041;BME280;7095;51.388;6.196;2022-07-11T09:02:57;53340.06;;;-145.32;100.00
14041;BME280;7095;51.388;6.196;2022-07-11T09:05:27;53344.03;;;-145.32;100.00
14041;BME280;7095;51.388;6.196;2022-07-11T09:07:56;53367.91;;;-145.32;100.00
14041;BME280;7095;51.388;6.196;2022-07-11T09:10:25;53344.03;;;-145.32;100.00
14041;BME280;7095;51.388;6.196;2022-07-11T09:12:58;53320.19;;;-145.32;100.00
14041;BME280;7095;51.388;6.196;2022-07-11T09:15:31;53316.22;;;-145.32;100.00
14041;BME280;7095;51.388;6.196;2022-07-11T09:18:04;53344.03;;;-145.32;100.00
14041;BME280;7095;51.388;6.196;2022-07-11T09:20:54;53371.88;;;-145.32;100.00
14041;BME280;7095;51.388;6.196;2022-07-11T09:23:42;53365.91;;;-145.32;100.00
14041;BME280;7095;51.388;6.196;2022-07-11T09:26:29;53385.78;;;-145.32;100.00
14041;BME280;7095;51.388;6.196;2022-07-11T09:29:06;53367.91;;;-145.32;100.00
14041;BME280;7095;51.388;6.196;2022-07-11T09:31:37;53367.91;;;-145.32;100.00
14041;BME280;7095;51.388;6.196;2022-07-11T09:34:09;53383.78;;;-145.32;100.00
14041;BME280;7095;51.388;6.196;2022-07-11T09:36:41;53357.94;;;-145.32;100.00
14041;BME280;7095;51.388;6.196;2022-07-11T09:39:12;53413.63;;;-145.32;100.00
14041;BME280;7095;51.388;6.196;2022-07-11T09:41:42;53403.69;;;-145.32;100.00
14041;BME280;7095;51.388;6.196;2022-07-11T09:44:14;53387.78;;;-145.32;100.00
14041;BME280;7095;51.388;6.196;2022-07-11T09:46:45;53381.81;;;-145.32;100.00
14041;BME280;7095;51.388;6.196;2022-07-11T09:49:29;53379.81;;;-145.32;100.00
14041;BME280;7095;51.388;6.196;2022-07-11T09:52:06;53379.81;;;-145.32;100.00
14041;BME280;7095;51.388;6.196;2022-07-11T09:54:52;53359.94;;;-145.32;100.00
14041;BME280;7095;51.388;6.196;2022-07-11T09:57:32;53395.72;;;-145.32;100.00
14041;BME280;7095;51.388;6.196;2022-07-11T10:00:03;53391.75;;;-145.32;100.00
14041;BME280;7095;51.388;6.196;2022-07-11T10:02:32;53379.81;;;-145.32;100.00
14041;BME280;7095;51.388;6.196;2022-07-11T10:05:03;53403.69;;;-145.32;100.00
14041;BME280;7095;51.388;6.196;2022-07-11T10:07:32;53407.66;;;-145.32;100.00
14041;BME280;7095;51.388;6.196;2022-07-11T10:10:03;53379.81;;;-145.32;100.00
14041;BME280;7095;51.388;6.196;2022-07-11T10:12:33;53385.78;;;-145.32;100.00
14041;BME280;7095;51.388;6.196;2022-07-11T10:15:04;53389.75;;;-145.32;100.00
14041;BME280;7095;51.388;6.196;2022-07-11T10:17:42;53369.88;;;-145.32;100.00
14041;BME280;7095;51.388;6.196;2022-07-11T10:20:19;53399.69;;;-145.32;100.00
14041;BME280;7095;51.388;6.196;2022-07-11T10:22:55;53389.75;;;-145.32;100.00
14041;BME280;7095;51.388;6.196;2022-07-11T10:25:30;53405.66;;;-145.32;100.00
14041;BME280;7095;51.388;6.196;2022-07-11T10:28:22;53375.84;;;-145.32;100.00
14041;BME280;7095;51.388;6.196;2022-07-11T10:30:54;53415.59;;;-145.32;100.00
14041;BME280;7095;51.388;6.196;2022-07-11T10:33:28;53365.91;;;-145.32;100.00
14041;BME280;7095;51.388;6.196;2022-07-11T10:35:59;53379.81;;;-145.32;100.00
14041;BME280;7095;51.388;6.196;2022-07-11T10:38:28;53312.22;;;-145.32;100.00
14041;BME280;7095;51.388;6.196;2022-07-11T10:40:58;53348.00;;;-145.32;100.00
14041;BME280;7095;51.388;6.196;2022-07-11T10:43:35;53324.16;;;-145.32;100.00
14041;BME280;7095;51.388;6.196;2022-07-11T10:46:07;53324.16;;;-145.32;100.00
14041;BME280;7095;51.388;6.196;2022-07-11T10:48:53;53328.13;;;-145.32;100.00
14041;BME280;7095;51.388;6.196;2022-07-11T10:51:29;53318.19;;;-145.32;100.00
14041;BME280;7095;51.388;6.196;2022-07-11T10:54:32;53324.16;;;-145.32;100.00
14041;BME280;7095;51.388;6.196;2022-07-11T10:57:13;53306.28;;;-145.32;100.00
14041;BME280;7095;51.388;6.196;2022-07-11T10:59:58;53318.19;;;-145.32;100.00
14041;BME280;7095;51.388;6.196;2022-07-11T11:02:28;53355.97;;;-145.32;100.00
14041;BME280;7095;51.388;6.196;2022-07-11T11:04:58;53367.91;;;-145.32;100.00
14041;BME280;7095;51.388;6.196;2022-07-11T11:07:35;53346.03;;;-145.32;100.00
14041;BME280;7095;51.388;6.196;2022-07-11T11:13:17;53346.03;;;-145.32;100.00
14041;BME280;7095;51.388;6.196;2022-07-11T11:15:49;53357.94;;;-145.32;100.00
14041;BME280;7095;51.388;6.196;2022-07-11T11:18:42;53346.03;;;-145.32;100.00
14041;BME280;7095;51.388;6.196;2022-07-11T11:21:22;53336.09;;;-145.32;100.00
14041;BME280;7095;51.388;6.196;2022-07-11T11:24:04;53344.03;;;-145.32;100.00
14041;BME280;7095;51.388;6.196;2022-07-11T11:26:50;53324.16;;;-145.32;100.00
14041;BME280;7095;51.388;6.196;2022-07-11T11:29:21;53348.00;;;-145.32;100.00
14041;BME280;7095;51.388;6.196;2022-07-11T11:31:52;53304.28;;;-145.32;100.00
14041;BME280;7095;51.388;6.196;2022-07-11T11:34:22;53344.03;;;-145.32;100.00
14041;BME280;7095;51.388;6.196;2022-07-11T11:36:56;53320.19;;;-145.32;100.00
14041;BME280;7095;51.388;6.196;2022-07-11T11:39:30;53365.91;;;-145.32;100.00
14041;BME280;7095;51.388;6.196;2022-07-11T11:42:04;53344.03;;;-145.32;100.00
14041;BME280;7095;51.388;6.196;2022-07-11T11:44:33;53324.16;;;-145.32;100.00
14041;BME280;7095;51.388;6.196;2022-07-11T11:47:03;53308.25;;;-145.32;100.00
14041;BME280;7095;51.388;6.196;2022-07-11T11:49:42;53344.03;;;-145.32;100.00
14041;BME280;7095;51.388;6.196;2022-07-11T11:52:11;53338.06;;;-145.32;100.00
14041;BME280;7095;51.388;6.196;2022-07-11T11:54:41;53308.25;;;-145.32;100.00
14041;BME280;7095;51.388;6.196;2022-07-11T11:57:10;53359.94;;;-145.32;100.00
14041;BME280;7095;51.388;6.196;2022-07-11T11:59:40;53312.22;;;-145.32;100.00
14041;BME280;7095;51.388;6.196;2022-07-11T12:02:09;53318.19;;;-145.32;100.00
14041;BME280;7095;51.388;6.196;2022-07-11T12:04:38;53288.38;;;-145.32;100.00
14041;BME280;7095;51.388;6.196;2022-07-11T12:07:08;53272.47;;;-145.32;100.00
14041;BME280;7095;51.388;6.196;2022-07-11T12:09:37;53306.28;;;-145.32;100.00
14041;BME280;7095;51.388;6.196;2022-07-11T12:12:20;53296.31;;;-145.32;100.00
14041;BME280;7095;51.388;6.196;2022-07-11T12:15:23;53264.53;;;-145.32;100.00
14041;BME280;7095;51.388;6.196;2022-07-11T12:17:56;53306.28;;;-145.32;100.00
14041;BME280;7095;51.388;6.196;2022-07-11T12:20:38;53322.16;;;-145.32;100.00
14041;BME280;7095;51.388;6.196;2022-07-11T12:23:09;53300.31;;;-145.32;100.00
14041;BME280;7095;51.388;6.196;2022-07-11T12:25:47;53308.25;;;-145.32;100.00
14041;BME280;7095;51.388;6.196;2022-07-11T12:28:17;53322.16;;;-145.32;100.00
14041;BME280;7095;51.388;6.196;2022-07-11T12:30:46;53274.47;;;-145.32;100.00
14041;BME280;7095;51.388;6.196;2022-07-11T12:33:22;53340.06;;;-145.32;100.00
14041;BME280;7095;51.388;6.196;2022-07-11T12:35:57;53282.41;;;-145.32;100.00
14041;BME280;7095;51.388;6.196;2022-07-11T12:38:26;53280.41;;;-145.32;100.00
14041;BME280;7095;51.388;6.196;2022-07-11T12:41:14;53300.31;;;-145.32;100.00
14041;BME280;7095;51.388;6.196;2022-07-11T12:43:48;53288.38;;;-145.32;100.00
14041;BME280;7095;51.388;6.196;2022-07-11T12:46:34;53314.22;;;-145.32;100.00
14041;BME280;7095;51.388;6.196;2022-07-11T12:49:05;53288.38;;;-145.32;100.00
14041;BME280;7095;51.388;6.196;2022-07-11T12:51:36;53264.53;;;-145.32;100.00
14041;BME280;7095;51.388;6.196;2022-07-11T12:54:07;53272.47;;;-145.32;100.00
14041;BME280;7095;51.388;6.196;2022-07-11T12:56:38;53280.41;;;-145.32;100.00
14041;BME280;7095;51.388;6.196;2022-07-11T12:59:23;53272.47;;;-145.32;100.00
14041;BME280;7095;51.388;6.196;2022-07-11T13:01:57;53252.59;;;-145.32;100.00
14041;BME280;7095;51.388;6.196;2022-07-11T13:04:33;53250.59;;;-145.32;100.00